Time;durP1;ratioP1;P1;durP2;ratioP2;P2;SDS_P1;SDS_P2;PMS_P1;PMS_P2;Temp;Humidity;BMP_temperature;BMP_pressure;BME280_temperature;BME280_humidity;BME280_pressure;Samples;Min_cycle;Max_cycle;Signal;HPM_P1;HPM_P2
2023/06/22 00:01:43;;;;;;;9.80;8.70;;;;;;;24.06;64.32;99169.90;223772;181;145293;-64
2023/06/22 00:06:46;;;;;;;15.50;9.50;;;;;;;23.99;64.67;99169.00;223811;181;138155;-64
2023/06/22 00:11:50;;;;;;;11.40;9.20;;;;;;;23.90;64.88;99173.26;223759;181;138234;-64
2023/06/22 00:16:57;;;;;;;16.20;9.00;;;;;;;23.79;65.14;99172.19;223789;181;146149;-65
2023/06/22 00:22:01;;;;;;;14.60;8.30;;;;;;;23.72;65.55;99163.35;223396;181;140151;-69
2023/06/22 00:27:05;;;;;;;15.60;9.40;;;;;;;23.73;65.65;99157.63;223867;181;136857;-68
2023/06/22 00:32:09;;;;;;;12.30;9.30;;;;;;;23.74;65.59;99151.85;224207;181;145451;-67
2023/06/22 00:37:12;;;;;;;12.30;9.10;;;;;;;23.74;65.60;99144.08;224289;214;138923;-67
2023/06/22 00:42:16;;;;;;;10.90;8.60;;;;;;;23.68;65.73;99141.98;224113;214;129195;-67
2023/06/22 00:47:20;;;;;;;12.10;8.40;;;;;;;23.61;65.97;99141.23;224188;214;145275;-65
2023/06/22 00:52:28;;;;;;;11.80;8.20;;;;;;;23.56;65.97;99135.45;224301;207;139226;-69
2023/06/22 00:57:32;;;;;;;9.40;7.70;;;;;;;23.51;65.96;99139.52;224221;214;130554;-65
2023/06/22 01:02:36;;;;;;;11.60;8.10;;;;;;;23.44;66.03;99138.09;224230;203;145299;-64
2023/06/22 01:08:05;;;;;;;12.70;8.00;;;;;;;23.42;66.07;99130.90;224148;203;138136;-66
2023/06/22 01:13:18;;;;;;;11.80;7.60;;;;;;;23.45;66.04;99124.19;224081;214;129045;-69
2023/06/22 01:18:25;;;;;;;11.10;7.70;;;;;;;23.48;66.19;99124.47;224263;214;144326;-66
2023/06/22 01:24:02;;;;;;;11.60;8.20;;;;;;;23.46;65.86;99133.31;224167;214;138374;-69
2023/06/22 01:29:13;;;;;;;10.60;7.60;;;;;;;23.45;65.92;99129.16;224332;207;130105;-70
2023/06/22 01:34:17;;;;;;;11.20;8.10;;;;;;;23.43;65.89;99132.33;224159;214;145312;-67
2023/06/22 01:39:22;;;;;;;10.20;7.30;;;;;;;23.37;65.95;99134.24;224084;203;139251;-70
2023/06/22 01:44:28;;;;;;;10.30;7.40;;;;;;;23.32;65.95;99141.45;224124;208;129460;-66
2023/06/22 01:49:31;;;;;;;11.60;7.20;;;;;;;23.32;66.03;99144.41;224188;214;145601;-68
2023/06/22 01:54:38;;;;;;;15.10;7.20;;;;;;;23.37;65.72;99149.52;224003;203;138027;-67
2023/06/22 02:00:04;;;;;;;12.10;6.80;;;;;;;23.41;65.64;99152.03;224125;214;128941;-68
2023/06/22 02:05:18;;;;;;;11.20;6.90;;;;;;;23.33;65.56;99148.44;224166;214;146928;-71
2023/06/22 02:10:24;;;;;;;12.70;6.80;;;;;;;23.27;65.60;99148.39;224109;214;138440;-65
2023/06/22 02:15:27;;;;;;;10.20;6.60;;;;;;;23.22;65.69;99149.08;224215;214;129125;-67
2023/06/22 02:20:36;;;;;;;10.30;6.80;;;;;;;23.16;65.74;99146.33;224276;181;145220;-68
2023/06/22 02:25:39;;;;;;;10.10;6.20;;;;;;;23.09;65.90;99149.89;224274;214;138429;-64
2023/06/22 02:30:42;;;;;;;11.30;5.90;;;;;;;23.09;65.86;99158.77;224115;214;129177;-66
2023/06/22 02:35:48;;;;;;;8.20;5.40;;;;;;;23.13;65.81;99163.39;224155;215;145205;-66
2023/06/22 02:40:51;;;;;;;10.30;6.20;;;;;;;23.10;65.89;99173.31;224344;208;140130;-64
2023/06/22 02:45:55;;;;;;;7.60;6.30;;;;;;;23.05;66.01;99176.91;224097;215;129927;-65
2023/06/22 02:50:59;;;;;;;13.60;6.30;;;;;;;22.97;66.16;99175.33;223967;215;146090;-65
2023/06/22 02:56:05;;;;;;;11.60;6.00;;;;;;;22.87;66.45;99171.81;224120;181;140408;-71
2023/06/22 03:01:13;;;;;;;10.90;6.50;;;;;;;22.82;66.72;99173.07;224091;208;128950;-68
2023/06/22 03:06:23;;;;;;;12.50;6.50;;;;;;;22.77;66.93;99178.73;224141;215;145493;-68
2023/06/22 03:11:27;;;;;;;11.60;6.40;;;;;;;22.72;67.19;99181.82;224083;214;139021;-68
2023/06/22 03:16:30;;;;;;;12.40;6.20;;;;;;;22.66;67.45;99178.33;224226;203;130565;-68
2023/06/22 03:21:34;;;;;;;13.40;6.00;;;;;;;22.67;67.47;99176.02;224119;196;145262;-67
2023/06/22 03:26:40;;;;;;;11.30;6.60;;;;;;;22.62;67.42;99189.58;224054;214;139018;-65
2023/06/22 03:31:44;;;;;;;10.20;6.10;;;;;;;22.59;67.57;99196.87;224087;215;129094;-68
2023/06/22 03:36:47;;;;;;;11.00;6.40;;;;;;;22.50;67.63;99207.21;224149;181;145328;-67
2023/06/22 03:41:52;;;;;;;10.30;7.20;;;;;;;22.44;67.94;99199.50;224008;214;140101;-66
2023/06/22 03:46:55;;;;;;;9.60;6.20;;;;;;;22.43;67.96;99202.30;224242;185;129551;-65
2023/06/22 03:52:00;;;;;;;9.60;6.40;;;;;;;22.42;68.14;99200.98;224234;214;145255;-71
2023/06/22 03:57:04;;;;;;;13.10;6.30;;;;;;;22.45;68.09;99206.48;224195;214;138921;-69
2023/06/22 04:02:07;;;;;;;11.80;6.20;;;;;;;22.47;68.01;99217.17;224362;214;129731;-70
2023/06/22 04:07:11;;;;;;;8.90;6.10;;;;;;;22.45;67.97;99221.90;224315;203;145097;-68
2023/06/22 04:12:14;;;;;;;8.40;5.70;;;;;;;22.40;68.08;99234.65;224366;203;138465;-77
2023/06/22 04:17:19;;;;;;;9.30;5.60;;;;;;;22.38;68.05;99232.27;224101;203;129064;-67
2023/06/22 04:22:22;;;;;;;8.00;5.10;;;;;;;22.43;68.01;99229.09;224335;203;132021;-67
2023/06/22 04:27:25;;;;;;;10.10;5.20;;;;;;;22.51;67.56;99230.77;224235;214;139020;-67
2023/06/22 04:32:28;;;;;;;9.10;4.80;;;;;;;22.55;67.28;99237.59;224230;191;130695;-66
2023/06/22 04:37:32;;;;;;;17.30;11.90;;;;;;;22.58;67.16;99235.59;224277;208;145507;-66
2023/06/22 04:42:38;;;;;;;21.80;15.90;;;;;;;22.64;67.04;99240.92;224297;214;138858;-70
2023/06/22 04:47:42;;;;;;;11.40;5.90;;;;;;;22.56;67.10;99248.88;224146;214;129483;-67
2023/06/22 04:52:45;;;;;;;21.20;8.00;;;;;;;22.51;67.39;99251.25;224261;204;145309;-70
2023/06/22 04:57:49;;;;;;;10.30;4.60;;;;;;;22.52;67.55;99257.97;224231;214;138647;-70
2023/06/22 05:02:52;;;;;;;18.80;12.30;;;;;;;22.63;67.65;99257.55;224188;214;129265;-70
2023/06/22 05:08:06;;;;;;;10.60;5.10;;;;;;;22.86;67.45;99244.02;224118;214;145336;-67
2023/06/22 05:13:10;;;;;;;31.50;22.40;;;;;;;23.08;66.88;99240.81;224307;214;138275;-72
2023/06/22 05:18:13;;;;;;;12.20;6.10;;;;;;;23.19;66.62;99253.36;224363;203;129236;-72
2023/06/22 05:23:17;;;;;;;30.90;20.70;;;;;;;23.25;66.42;99265.92;224203;214;146357;-73
2023/06/22 05:28:22;;;;;;;16.20;8.60;;;;;;;23.30;66.28;99267.17;224194;214;138697;-75
2023/06/22 05:33:26;;;;;;;14.10;6.80;;;;;;;23.42;66.24;99263.90;224283;214;129355;-73
2023/06/22 05:38:29;;;;;;;21.00;7.40;;;;;;;23.54;66.03;99271.70;224165;208;146217;-72
2023/06/22 05:43:33;;;;;;;14.70;6.90;;;;;;;23.68;65.75;99272.55;224220;214;138198;-75
2023/06/22 05:48:36;;;;;;;15.80;6.90;;;;;;;23.81;65.43;99273.10;224258;208;128968;-66
2023/06/22 05:53:40;;;;;;;19.40;8.10;;;;;;;23.90;65.40;99273.17;224158;214;145777;-74
2023/06/22 05:58:43;;;;;;;22.20;8.70;;;;;;;23.96;65.44;99275.02;224100;214;139946;-74
2023/06/22 06:03:46;;;;;;;35.20;23.00;;;;;;;24.02;65.42;99285.35;224321;203;129296;-68
2023/06/22 06:08:50;;;;;;;15.70;10.50;;;;;;;24.07;65.35;99283.88;224161;214;145449;-66
2023/06/22 06:13:54;;;;;;;20.70;9.80;;;;;;;24.07;65.75;99287.79;224111;214;139321;-76
2023/06/22 06:18:58;;;;;;;17.70;8.90;;;;;;;24.16;65.75;99297.54;224135;204;128988;-69
2023/06/22 06:24:02;;;;;;;91.10;72.10;;;;;;;24.34;65.92;99298.89;224292;214;145157;-67
2023/06/22 06:29:05;;;;;;;23.50;14.70;;;;;;;24.49;65.79;99293.89;224249;207;138203;-66
2023/06/22 06:34:08;;;;;;;22.70;16.70;;;;;;;24.61;65.54;99298.48;224329;211;129990;-67
2023/06/22 06:39:11;;;;;;;23.60;15.90;;;;;;;24.67;65.56;99300.70;224157;191;145695;-66
2023/06/22 06:44:15;;;;;;;23.50;15.20;;;;;;;24.69;65.37;99306.38;224282;215;138416;-68
2023/06/22 06:49:21;;;;;;;25.00;17.20;;;;;;;24.73;65.83;99305.75;224325;215;129791;-68
2023/06/22 06:54:27;;;;;;;28.10;14.80;;;;;;;24.81;65.72;99302.64;224286;207;145620;-68
2023/06/22 06:59:30;;;;;;;29.60;16.70;;;;;;;24.93;65.51;99301.30;224112;215;138492;-68
2023/06/22 07:04:33;;;;;;;27.00;18.60;;;;;;;25.02;65.17;99303.62;224147;215;129882;-66
2023/06/22 07:09:37;;;;;;;30.20;23.10;;;;;;;25.12;65.43;99302.85;224223;214;145449;-68
2023/06/22 07:14:40;;;;;;;28.90;22.90;;;;;;;25.16;65.27;99294.79;224154;207;138919;-71
2023/06/22 07:19:43;;;;;;;29.70;23.50;;;;;;;25.18;65.22;99299.27;224262;214;130957;-72
2023/06/22 07:24:46;;;;;;;28.10;21.60;;;;;;;25.20;65.09;99293.59;224182;214;147669;-71
2023/06/22 07:29:49;;;;;;;23.30;19.80;;;;;;;25.22;65.24;99290.75;224287;214;138649;-66
2023/06/22 07:34:53;;;;;;;24.30;19.50;;;;;;;25.30;65.00;99289.50;224343;214;131280;-69
2023/06/22 07:39:58;;;;;;;25.80;19.40;;;;;;;25.29;64.47;99284.89;224272;214;148194;-68
2023/06/22 07:45:03;;;;;;;23.30;18.60;;;;;;;25.28;64.64;99280.42;223977;207;139185;-68
2023/06/22 07:50:07;;;;;;;19.80;17.20;;;;;;;25.20;63.90;99278.14;224082;214;130890;-74
2023/06/22 07:55:10;;;;;;;23.20;16.80;;;;;;;25.13;64.52;99272.65;224123;183;147637;-73
2023/06/22 08:00:15;;;;;;;19.70;16.40;;;;;;;25.19;64.40;99282.71;224192;214;138022;-70
2023/06/22 08:05:18;;;;;;;18.60;16.60;;;;;;;25.22;64.12;99292.39;224197;196;130898;-67
2023/06/22 08:10:25;;;;;;;20.50;18.10;;;;;;;25.32;64.37;99295.79;224350;203;147512;-71
2023/06/22 08:15:29;;;;;;;21.10;18.90;;;;;;;25.46;64.32;99299.34;224190;214;139423;-68
2023/06/22 08:20:33;;;;;;;21.20;18.30;;;;;;;25.52;63.70;99309.06;224168;203;131002;-67
2023/06/22 08:25:36;;;;;;;17.70;15.80;;;;;;;25.55;63.61;99313.70;224270;207;146876;-70
2023/06/22 08:30:39;;;;;;;17.90;16.00;;;;;;;25.72;63.08;99310.82;224022;208;138503;-68
2023/06/22 08:35:44;;;;;;;17.90;16.00;;;;;;;25.71;62.92;99310.98;224145;208;131040;-67
2023/06/22 08:40:47;;;;;;;17.40;15.40;;;;;;;25.81;62.65;99310.39;224103;214;147413;-66
2023/06/22 08:45:50;;;;;;;16.70;14.80;;;;;;;25.92;62.13;99314.47;224239;181;138787;-71
2023/06/22 08:50:53;;;;;;;16.70;14.70;;;;;;;26.00;61.07;99315.08;224197;204;131255;-74
2023/06/22 08:55:59;;;;;;;18.10;14.70;;;;;;;26.09;61.14;99315.17;224277;185;147096;-68
2023/06/22 09:01:02;;;;;;;19.40;14.70;;;;;;;26.18;60.73;99321.89;224244;214;138975;-68
2023/06/22 09:06:06;;;;;;;16.60;13.40;;;;;;;26.26;60.07;99314.95;224250;214;131844;-68
2023/06/22 09:11:09;;;;;;;14.10;12.60;;;;;;;26.36;60.11;99317.27;224229;192;147383;-68
2023/06/22 09:16:13;;;;;;;11.90;10.70;;;;;;;26.44;58.69;99314.85;224222;214;138420;-67
2023/06/22 09:21:17;;;;;;;13.30;11.30;;;;;;;26.52;58.25;99312.08;224275;214;131123;-66
2023/06/22 09:26:22;;;;;;;11.80;10.60;;;;;;;26.54;57.86;99310.84;224246;203;147244;-70
2023/06/22 09:31:25;;;;;;;13.90;12.00;;;;;;;26.66;57.91;99309.56;224185;214;139152;-72
2023/06/22 09:36:30;;;;;;;11.90;10.50;;;;;;;26.73;57.82;99313.25;224142;192;130832;-70
2023/06/22 09:41:33;;;;;;;10.70;9.00;;;;;;;26.82;57.72;99313.77;224273;214;146871;-69
2023/06/22 09:46:38;;;;;;;11.10;9.90;;;;;;;26.94;56.85;99311.14;224117;183;138254;-66
2023/06/22 09:51:50;;;;;;;13.30;9.80;;;;;;;27.05;57.16;99308.94;224208;214;130924;-66
2023/06/22 09:56:54;;;;;;;;;;;;;;;27.17;56.95;99301.64;224301;214;147053;-66
2023/06/22 10:01:57;;;;;;;13.40;10.00;;;;;;;27.04;56.16;99307.24;223912;203;139110;-66
2023/06/22 10:07:02;;;;;;;19.10;9.30;;;;;;;26.86;56.29;99304.02;223926;203;131216;-66
2023/06/22 10:12:05;;;;;;;13.80;8.80;;;;;;;26.74;56.03;99306.37;224010;214;147645;-66
2023/06/22 10:17:08;;;;;;;14.60;8.60;;;;;;;26.90;56.21;99309.11;224138;214;138681;-67
2023/06/22 10:22:12;;;;;;;13.60;8.50;;;;;;;26.95;55.82;99301.35;224091;214;130997;-66
2023/06/22 10:27:15;;;;;;;8.40;7.60;;;;;;;27.02;55.98;99297.77;224021;214;147760;-65
2023/06/22 10:32:18;;;;;;;10.30;7.60;;;;;;;27.40;55.97;99294.73;224001;214;138840;-67
2023/06/22 10:37:22;;;;;;;22.70;10.00;;;;;;;27.65;54.83;99296.27;224096;208;131105;-66
2023/06/22 10:42:25;;;;;;;10.10;7.90;;;;;;;27.66;54.36;99292.84;223956;181;147642;-66
2023/06/22 10:47:28;;;;;;;9.80;7.90;;;;;;;27.94;53.72;99275.89;223666;181;137709;-65
2023/06/22 10:52:32;;;;;;;11.30;7.60;;;;;;;28.02;53.35;99269.41;223713;181;140066;-66
2023/06/22 10:57:36;;;;;;;16.70;9.30;;;;;;;28.11;52.93;99264.73;223555;181;148587;-66
2023/06/22 11:02:40;;;;;;;12.50;8.10;;;;;;;28.14;52.75;99258.52;223657;181;138977;-67
2023/06/22 11:07:44;;;;;;;18.60;8.20;;;;;;;28.33;52.47;99247.95;223565;181;137705;-67
2023/06/22 11:12:49;;;;;;;15.30;8.50;;;;;;;28.26;51.61;99240.76;223673;181;147828;-67
2023/06/22 11:17:52;;;;;;;10.60;7.00;;;;;;;28.07;51.61;99246.45;223560;181;138602;-67
2023/06/22 11:22:55;;;;;;;13.40;7.10;;;;;;;28.19;51.98;99241.58;223666;181;137540;-66
2023/06/22 11:27:59;;;;;;;15.10;8.50;;;;;;;28.36;51.39;99238.38;223566;181;147313;-67
2023/06/22 11:33:02;;;;;;;11.10;8.70;;;;;;;28.38;51.59;99239.80;223371;181;140500;-66
2023/06/22 11:38:06;;;;;;;35.90;29.20;;;;;;;28.57;50.90;99234.15;223623;181;137511;-67
2023/06/22 11:43:09;;;;;;;16.40;13.50;;;;;;;28.65;50.73;99235.77;223774;182;146940;-67
2023/06/22 11:48:12;;;;;;;12.00;7.60;;;;;;;28.89;50.02;99219.77;223676;181;138409;-66
2023/06/22 11:53:17;;;;;;;8.20;6.50;;;;;;;28.98;49.40;99225.68;223696;181;137455;-66
2023/06/22 11:58:20;;;;;;;9.80;6.90;;;;;;;29.23;49.23;99222.08;223628;182;146980;-68
2023/06/22 12:03:24;;;;;;;14.80;13.20;;;;;;;29.46;48.53;99218.52;223681;181;138348;-66
2023/06/22 12:08:27;;;;;;;9.00;7.20;;;;;;;29.63;48.15;99209.45;223656;181;137343;-67
2023/06/22 12:13:30;;;;;;;11.60;6.50;;;;;;;29.77;47.64;99206.25;223716;182;147077;-68
2023/06/22 12:18:34;;;;;;;9.60;6.40;;;;;;;29.93;47.43;99205.23;223678;181;138234;-67
2023/06/22 12:23:37;;;;;;;7.40;6.60;;;;;;;30.12;46.69;99209.50;223642;181;137120;-67
2023/06/22 12:28:40;;;;;;;7.30;6.40;;;;;;;30.22;46.17;99203.91;223691;181;147394;-66
2023/06/22 12:33:43;;;;;;;8.10;6.50;;;;;;;30.35;45.98;99206.23;223571;181;139776;-68
2023/06/22 12:38:47;;;;;;;7.40;5.90;;;;;;;30.48;45.84;99201.96;223596;182;136917;-67
2023/06/22 12:43:50;;;;;;;10.20;6.60;;;;;;;30.58;45.59;99192.10;223723;181;147597;-69
2023/06/22 12:48:53;;;;;;;10.00;6.40;;;;;;;30.72;45.08;99190.45;223713;181;138952;-67
2023/06/22 12:54:03;;;;;;;29.10;26.10;;;;;;;30.77;45.02;99184.00;223606;181;137427;-67
2023/06/22 12:59:10;;;;;;;11.60;6.70;;;;;;;30.99;44.62;99173.02;223699;181;149313;-68
2023/06/22 13:04:15;;;;;;;7.00;6.30;;;;;;;31.15;44.27;99160.35;223644;181;139046;-65
2023/06/22 13:09:19;;;;;;;8.60;6.50;;;;;;;31.36;43.62;99153.79;223563;181;136742;-65
2023/06/22 13:14:24;;;;;;;10.70;6.10;;;;;;;31.48;42.97;99152.79;223651;181;147295;-64
2023/06/22 13:19:31;;;;;;;6.40;5.70;;;;;;;31.57;43.17;99143.33;223730;178;138421;-64
2023/06/22 13:24:35;;;;;;;8.00;5.90;;;;;;;31.70;42.82;99144.41;223688;182;137354;-64
2023/06/22 13:29:38;;;;;;;9.10;6.20;;;;;;;31.78;42.65;99142.11;223689;181;147767;-63
2023/06/22 13:34:42;;;;;;;9.00;6.50;;;;;;;31.91;42.29;99141.85;223636;181;139393;-64
2023/06/22 13:39:45;;;;;;;7.90;5.90;;;;;;;32.05;42.22;99135.45;223473;181;136665;-64
2023/06/22 13:44:48;;;;;;;9.10;7.80;;;;;;;32.21;41.37;99140.73;223597;181;147253;-66
2023/06/22 13:50:47;;;;;;;9.80;6.40;;;;;;;32.28;41.13;99136.30;222087;192;666306;-66
2023/06/22 13:55:51;;;;;;;38.10;34.10;;;;;;;32.33;40.89;99137.64;223531;185;135782;-67
2023/06/22 14:00:54;;;;;;;9.90;6.80;;;;;;;32.39;40.91;99129.77;223694;182;143421;-65
2023/06/22 14:05:59;;;;;;;8.60;5.70;;;;;;;32.19;40.34;99127.20;223493;183;138925;-65
2023/06/22 14:11:02;;;;;;;7.00;6.30;;;;;;;32.02;40.97;99126.92;223719;182;136939;-65
2023/06/22 14:16:06;;;;;;;;;;;;;;;31.91;40.95;99129.25;223730;182;143795;-64
2023/06/22 14:21:09;;;;;;;6.80;5.60;;;;;;;31.57;40.80;99131.42;223432;182;138113;-64
2023/06/22 14:26:12;;;;;;;6.70;5.60;;;;;;;31.30;41.85;99132.96;223654;182;137226;-64
2023/06/22 14:31:17;;;;;;;12.60;11.40;;;;;;;31.19;42.44;99129.93;223807;182;144590;-62
2023/06/22 14:36:21;;;;;;;12.20;6.30;;;;;;;31.14;42.65;99128.09;223628;182;139118;-66
2023/06/22 14:41:28;;;;;;;10.80;7.60;;;;;;;31.07;42.65;99126.55;223659;182;136737;-66
2023/06/22 14:46:46;;;;;;;7.00;6.30;;;;;;;30.66;42.89;99127.45;223608;182;145649;-66
2023/06/22 14:51:50;;;;;;;9.00;6.40;;;;;;;30.29;43.22;99127.20;223676;182;138217;-65
2023/06/22 14:56:53;;;;;;;7.00;5.70;;;;;;;30.07;43.84;99124.55;223462;182;137592;-65
2023/06/22 17:05:37;;;;;;;30.80;26.00;;;;;;;28.36;47.93;99088.16;220882;192;666879;-64
2023/06/22 17:10:41;;;;;;;15.60;9.60;;;;;;;28.38;48.07;99087.08;223415;185;136645;-64
2023/06/22 17:15:47;;;;;;;12.50;8.30;;;;;;;28.38;48.30;99085.09;223638;183;143548;-63
2023/06/22 17:20:51;;;;;;;163.90;146.00;;;;;;;28.36;48.51;99077.80;223559;183;139035;-65
2023/06/22 17:25:56;;;;;;;32.20;28.50;;;;;;;28.34;48.25;99072.91;223640;183;137812;-65
2023/06/22 17:31:12;;;;;;;11.60;8.60;;;;;;;28.34;48.42;99074.17;223687;182;144935;-66
2023/06/22 17:36:16;;;;;;;11.50;9.00;;;;;;;28.32;48.48;99073.04;223638;183;138723;-66
2023/06/22 17:41:19;;;;;;;12.20;8.10;;;;;;;28.28;48.61;99068.68;223623;183;136979;-65
2023/06/22 17:46:24;;;;;;;38.10;30.70;;;;;;;28.22;48.69;99066.13;223621;183;144649;-64
2023/06/22 17:51:29;;;;;;;50.40;45.00;;;;;;;28.16;48.86;99069.90;223641;183;139382;-63
2023/06/22 17:56:33;;;;;;;20.70;16.00;;;;;;;28.11;48.80;99065.73;223476;183;136608;-65
2023/06/22 18:01:38;;;;;;;585.40;523.50;;;;;;;28.00;48.70;99060.19;223461;184;145144;-64
2023/06/22 18:06:43;;;;;;;136.10;116.50;;;;;;;27.92;49.12;99056.42;223544;183;139954;-70
2023/06/22 18:12:02;;;;;;;44.40;38.20;;;;;;;27.84;49.30;99052.70;223534;183;137395;-71
2023/06/22 18:17:06;;;;;;;37.70;31.50;;;;;;;27.73;49.68;99049.90;223694;183;145588;-69
2023/06/22 18:22:09;;;;;;;24.30;21.80;;;;;;;27.63;50.22;99048.10;223480;183;140053;-69
2023/06/22 18:27:14;;;;;;;30.70;24.00;;;;;;;27.51;50.37;99040.35;223559;183;136660;-64
2023/06/22 18:32:17;;;;;;;500.90;429.50;;;;;;;27.41;50.73;99042.03;223616;184;145297;-65
2023/06/22 18:37:21;;;;;;;38.80;32.50;;;;;;;27.36;51.18;99037.63;223498;184;139570;-66
2023/06/22 18:42:26;;;;;;;23.00;17.70;;;;;;;27.26;51.31;99042.92;223576;183;137292;-65
2023/06/22 19:01:37;;;;;;;44.60;38.40;;;;;;;26.78;52.49;99048.81;221978;193;666068;-65
2023/06/22 19:06:52;;;;;;;14.90;11.70;;;;;;;26.58;52.67;99061.07;223745;182;136874;-64
2023/06/22 19:12:22;;;;;;;9.50;7.30;;;;;;;26.44;52.73;99075.59;223714;181;143280;-65
2023/06/22 19:17:32;;;;;;;7.90;6.90;;;;;;;26.33;52.75;99074.39;223702;181;139440;-64
2023/06/22 19:22:56;;;;;;;9.30;7.30;;;;;;;26.23;53.05;99076.86;223735;181;136795;-63
2023/06/22 19:28:00;;;;;;;13.00;7.00;;;;;;;26.17;53.15;99077.77;223696;181;143453;-66
2023/06/22 19:33:07;;;;;;;11.50;7.40;;;;;;;26.12;53.51;99079.30;223773;181;138413;-65
2023/06/22 19:38:15;;;;;;;12.30;6.70;;;;;;;26.07;53.88;99080.81;223686;182;137401;-64
2023/06/22 19:43:18;;;;;;;11.70;8.00;;;;;;;26.00;54.40;99074.94;223742;181;144045;-65
2023/06/22 19:50:45;;;;;;;13.20;8.70;;;;;;;25.95;54.46;99067.04;220538;192;665874;-66
2023/06/22 19:55:49;;;;;;;13.80;9.10;;;;;;;25.87;55.01;99063.13;223594;183;136426;-63
2023/06/22 20:00:59;;;;;;;12.80;9.20;;;;;;;25.77;55.28;99063.08;223730;183;144719;-65
2023/06/22 20:06:16;;;;;;;12.40;8.60;;;;;;;25.69;55.66;99066.05;223674;183;138104;-62
2023/06/22 20:11:25;;;;;;;10.00;8.60;;;;;;;25.62;56.03;99058.41;223712;182;137282;-63
2023/06/22 20:16:29;;;;;;;11.70;8.60;;;;;;;25.58;56.18;99057.81;223733;182;143518;-66
2023/06/22 20:21:32;;;;;;;12.40;9.70;;;;;;;25.52;56.47;99053.50;223717;183;138417;-63
2023/06/22 20:26:43;;;;;;;13.50;9.30;;;;;;;25.44;56.63;99060.08;223785;182;136369;-63
2023/06/22 20:32:14;;;;;;;14.60;9.70;;;;;;;25.38;57.02;99058.66;223770;182;143787;-65
2023/06/22 20:37:27;;;;;;;13.60;9.30;;;;;;;25.34;57.53;99061.79;223672;182;138417;-65
2023/06/22 20:42:40;;;;;;;14.60;9.30;;;;;;;25.25;57.77;99059.92;223673;182;139809;-63
2023/06/22 20:47:44;;;;;;;13.00;9.40;;;;;;;25.18;57.87;99047.75;223740;182;146081;-64
2023/06/22 20:52:48;;;;;;;13.20;9.10;;;;;;;25.12;58.32;99030.48;223658;182;139978;-67
2023/06/22 20:57:52;;;;;;;13.30;9.30;;;;;;;25.06;58.72;99022.09;223602;182;136710;-65
2023/06/22 21:02:55;;;;;;;13.20;9.00;;;;;;;25.01;58.78;99014.97;223704;183;145913;-65
2023/06/22 21:08:02;;;;;;;19.40;9.80;;;;;;;24.96;58.98;99008.62;223647;182;138936;-64
2023/06/22 21:13:06;;;;;;;12.80;9.10;;;;;;;24.90;59.10;99010.50;223566;182;137373;-65
2023/06/22 21:18:09;;;;;;;12.90;9.90;;;;;;;24.82;59.29;99004.19;223648;182;145808;-64
2023/06/22 21:23:13;;;;;;;12.20;9.40;;;;;;;24.74;59.45;99000.73;223715;182;139062;-64
2023/06/22 21:28:20;;;;;;;15.50;9.90;;;;;;;24.67;59.90;98994.17;223722;181;136739;-63
2023/06/22 21:33:23;;;;;;;13.20;10.30;;;;;;;24.59;59.94;98997.43;223746;181;145181;-64
2023/06/22 21:38:26;;;;;;;15.20;10.30;;;;;;;24.49;60.30;99002.40;223621;181;139564;-64
2023/06/22 21:43:30;;;;;;;13.10;9.60;;;;;;;24.41;60.64;99005.66;223623;181;136271;-67
2023/06/22 21:50:56;;;;;;;16.30;11.00;;;;;;;24.39;61.06;98999.95;222053;192;690372;-66
2023/06/22 21:56:02;;;;;;;17.40;10.20;;;;;;;24.35;61.11;98997.61;222481;187;137055;-63
2023/06/22 22:01:08;;;;;;;19.40;10.40;;;;;;;24.32;61.34;98996.23;223227;186;143963;-64
2023/06/22 22:06:14;;;;;;;14.50;10.60;;;;;;;24.27;61.52;98990.21;223623;183;138610;-65
2023/06/22 22:11:22;;;;;;;15.20;10.50;;;;;;;24.21;61.60;98981.49;223616;183;136525;-65
2023/06/22 22:16:26;;;;;;;18.00;11.80;;;;;;;24.11;61.93;98975.35;223688;182;143466;-64
2023/06/22 22:21:29;;;;;;;16.90;10.90;;;;;;;24.02;62.29;98959.92;223753;182;138726;-63
2023/06/22 22:26:35;;;;;;;16.10;11.30;;;;;;;23.96;62.41;98945.67;223696;182;137736;-68
2023/06/22 22:31:40;;;;;;;13.50;9.70;;;;;;;23.90;62.47;98941.17;223537;183;143356;-64
2023/06/22 22:36:43;;;;;;;11.90;9.70;;;;;;;23.88;62.46;98935.77;223688;183;140106;-62
2023/06/22 22:41:47;;;;;;;15.90;10.20;;;;;;;23.90;62.34;98927.89;223672;183;136500;-64
2023/06/22 22:50:48;;;;;;;14.70;10.10;;;;;;;23.95;62.04;98920.81;222144;193;665537;-66
2023/06/22 22:55:51;;;;;;;15.50;10.50;;;;;;;23.91;61.88;98909.64;223676;183;136510;-68
2023/06/22 23:00:56;;;;;;;14.20;10.20;;;;;;;23.88;61.98;98894.95;223559;183;143160;-65
2023/06/22 23:06:00;;;;;;;14.00;9.80;;;;;;;23.82;62.08;98886.70;223545;183;140430;-63
2023/06/22 23:11:03;;;;;;;13.50;9.60;;;;;;;23.78;61.93;98887.30;223591;183;137116;-63
2023/06/22 23:16:06;;;;;;;12.10;9.00;;;;;;;23.72;61.96;98886.23;223591;183;144512;-63
2023/06/22 23:21:09;;;;;;;12.50;9.40;;;;;;;23.68;62.02;98879.05;223673;182;139563;-64
2023/06/22 23:26:14;;;;;;;12.50;9.70;;;;;;;23.63;62.01;98872.89;223690;181;136891;-63
2023/06/22 23:31:18;;;;;;;10.40;9.00;;;;;;;23.59;61.89;98864.45;223746;181;144984;-64
2023/06/22 23:36:21;;;;;;;9.80;8.80;;;;;;;23.60;61.99;98857.08;223702;181;140109;-65
2023/06/22 23:41:25;;;;;;;11.40;8.70;;;;;;;23.61;61.96;98854.96;223708;181;136371;-64
2023/06/22 23:46:30;;;;;;;12.10;9.30;;;;;;;23.62;61.81;98848.20;223738;181;147146;-63
2023/06/22 23:51:42;;;;;;;10.50;8.80;;;;;;;23.60;61.64;98849.30;223718;182;138539;-65
2023/06/22 23:56:45;;;;;;;12.20;8.70;;;;;;;23.55;61.87;98851.23;223669;182;136537;-65
